Estación municipal de Cercs - St.Jordi (Berguedà, )

Consulta los datos en tiempo real de la estación municipal de Cercs - St.Jordi





Hora UTC 02:05
Temperatura 19.8 ºC
Humedad 78.8 %
Presión 1023.3 hPa
Pluja 0.0 mm
Velocidad viento 0.5 km/h
Dirección viento N
Radiación solar 0.1 W/m²

Datos diarios 2026-09-04



Hora UTC (invierno +1h; verano +2h)
Temperatura (ºC) Humedad (%) Presión (hPa) Velocidad viento (km/h) Precipitación (mm) Radiación solar (W/m²)
Hora UTC Aire Humedad Presión Vel. Dir. Vel. Max Dir. Intent. máx 5 min. Rad. Sol.
00:05 21.4 73.9 1024.0 1.7 S 1.7 NW 0.0 0.1
00:10 21.3 74.2 1024.0 0.1 ESE 3.4 SSW 0.0 0.1
00:15 21.2 74.8 1023.9 0.0 NNE 0.0 SE 0.0 0.1
00:20 21.1 75.0 1023.9 1.9 SE 6.1 SE 0.0 0.1
00:25 21.0 74.9 1023.9 0.7 SSE 3.4 SE 0.0 0.1
00:30 21.0 74.6 1023.8 0.0 NNE 0.0 SE 0.0 0.1
00:35 21.0 75.1 1023.8 0.0 NNE 0.0 ESE 0.0 0.1
00:40 20.8 75.4 1023.8 1.6 NE 6.1 NNE 0.0 0.1
00:45 20.8 74.8 1023.7 2.2 NE 6.1 NE 0.0 0.1
00:50 20.7 75.4 1023.7 0.0 NNE 0.0 N 0.0 0.1
00:55 20.5 76.4 1023.7 0.0 NNE 0.0 WSW 0.0 0.1
01:00 20.4 77.2 1023.6 0.5 S 6.1 SSE 0.0 0.1
01:05 20.3 77.6 1023.6 0.1 S 3.4 SSE 0.0 0.2
01:10 20.1 78.2 1023.6 0.0 NNE 0.0 SSW 0.0 0.1
01:15 20.0 78.4 1023.6 0.0 NNE 0.0 SSW 0.0 0.1
01:20 20.0 78.3 1023.6 0.0 NE 3.4 NE 0.0 0.1
01:25 20.0 78.4 1023.6 0.0 NNE 0.0 NNE 0.0 0.1
01:30 20.0 78.3 1023.5 0.1 SSW 3.4 SSW 0.0 0.1
01:35 19.9 78.7 1023.5 0.9 SSW 6.1 SSW 0.0 0.1
01:40 19.8 79.1 1023.5 0.0 NNE 0.0 SSW 0.0 0.1
01:45 19.8 79.3 1023.5 0.0 NNE 0.0 W 0.0 0.1
01:50 19.8 79.1 1023.4 0.0 NNE 0.0 W 0.0 0.1
01:55 19.8 78.9 1023.4 0.0 NNE 0.0 SSW 0.0 0.1
02:00 19.8 79.1 1023.3 0.0 NNE 0.0 S 0.0 0.1
02:05 19.8 78.8 1023.3 0.5 N 6.1 N 0.0 0.1
Máxima 21.4 79.3 1024.0 2.2 NE 6.1 N 0.0 0.2
Mínima 19.8 73.9 1023.3
Total 0.0